createdAt,value
2018-02-18T00:00:02.726Z,67.90
2018-02-18T00:02:30.164Z,66.80
2018-02-18T00:04:58.473Z,66.60
2018-02-18T00:07:26.017Z,66.50
2018-02-18T00:09:53.627Z,66.50
2018-02-18T00:12:21.593Z,66.30
2018-02-18T00:14:49.118Z,66.20
2018-02-18T00:17:17.151Z,66.10
2018-02-18T00:19:45.745Z,66.00
2018-02-18T00:22:15.535Z,65.90
2018-02-18T00:24:43.039Z,66.00
2018-02-18T00:27:11.141Z,66.00
2018-02-18T00:29:38.601Z,66.00
2018-02-18T00:32:06.057Z,66.30
2018-02-18T00:34:34.094Z,66.50
2018-02-18T00:37:01.557Z,66.70
2018-02-18T00:42:05.852Z,67.50
2018-02-18T00:44:34.141Z,67.60
2018-02-18T00:47:01.980Z,67.60
2018-02-18T00:49:30.302Z,67.50
2018-02-18T00:51:57.813Z,67.40
2018-02-18T00:54:25.867Z,67.30
2018-02-18T00:56:53.308Z,67.40
2018-02-18T00:59:20.788Z,67.40
2018-02-18T01:01:48.229Z,67.40
2018-02-18T01:04:15.696Z,67.00
2018-02-18T01:06:43.207Z,66.90
2018-02-18T01:09:10.648Z,66.90
2018-02-18T01:11:38.263Z,67.00
2018-02-18T01:14:05.712Z,67.10
2018-02-18T01:16:33.213Z,67.20
2018-02-18T01:19:01.857Z,66.90
2018-02-18T01:21:29.325Z,66.90
2018-02-18T01:23:56.781Z,66.70
2018-02-18T01:26:24.303Z,66.50
2018-02-18T01:28:52.302Z,66.80
2018-02-18T01:31:20.270Z,66.90
2018-02-18T01:33:48.029Z,66.90
2018-02-18T01:36:15.751Z,67.00
2018-02-18T01:38:43.493Z,67.10
2018-02-18T01:41:11.954Z,67.30
2018-02-18T01:43:39.394Z,67.20
2018-02-18T01:46:06.901Z,67.40
2018-02-18T01:48:34.388Z,67.60
2018-02-18T01:51:01.896Z,67.60
2018-02-18T01:53:30.353Z,67.10
2018-02-18T01:55:58.423Z,67.00
2018-02-18T01:58:25.963Z,66.90
2018-02-18T02:00:53.889Z,66.70
2018-02-18T02:03:21.372Z,66.80
2018-02-18T02:05:48.921Z,67.00
2018-02-18T02:08:17.349Z,67.50
2018-02-18T02:10:44.814Z,67.40
2018-02-18T02:13:13.035Z,67.40
2018-02-18T02:15:40.592Z,67.10
2018-02-18T02:18:08.506Z,67.20
2018-02-18T02:20:36.006Z,67.40
2018-02-18T02:23:03.453Z,67.60
2018-02-18T02:25:30.933Z,67.40
2018-02-18T02:27:58.980Z,67.10
2018-02-18T02:30:27.197Z,66.60
2018-02-18T02:32:54.690Z,66.50
2018-02-18T02:35:23.525Z,66.70
2018-02-18T02:37:50.977Z,66.60
2018-02-18T02:40:18.880Z,66.70
2018-02-18T02:42:46.321Z,66.90
2018-02-18T02:45:13.873Z,66.50
2018-02-18T02:47:41.318Z,67.30
2018-02-18T02:50:08.796Z,66.80
2018-02-18T02:52:36.402Z,67.00
2018-02-18T02:55:05.154Z,66.80
2018-02-18T02:57:33.529Z,66.60
2018-02-18T03:00:00.975Z,66.70
2018-02-18T03:02:28.448Z,66.90
2018-02-18T03:04:55.976Z,67.00
2018-02-18T03:07:24.221Z,67.40
2018-02-18T03:09:51.704Z,67.30
2018-02-18T03:12:19.165Z,67.10
2018-02-18T03:14:46.616Z,67.20
2018-02-18T03:17:14.685Z,67.30
2018-02-18T03:19:42.123Z,67.20
2018-02-18T03:22:09.572Z,67.40
2018-02-18T03:24:37.156Z,66.70
2018-02-18T03:27:04.766Z,66.50
2018-02-18T03:29:33.333Z,66.50
2018-02-18T03:32:00.777Z,66.40
2018-02-18T03:34:28.447Z,66.60
2018-02-18T03:36:55.909Z,66.50
2018-02-18T03:39:23.765Z,66.30
2018-02-18T03:41:51.214Z,66.40
2018-02-18T03:44:18.708Z,66.20
2018-02-18T03:46:46.921Z,66.00
2018-02-18T03:49:14.616Z,66.00
2018-02-18T03:51:42.067Z,66.20
2018-02-18T03:54:09.877Z,66.50
2018-02-18T03:56:38.730Z,66.10
2018-02-18T03:59:06.180Z,66.00
2018-02-18T04:01:33.649Z,65.90
2018-02-18T04:04:01.114Z,66.10
2018-02-18T04:06:28.807Z,66.50
2018-02-18T04:08:56.286Z,66.80
2018-02-18T04:11:23.755Z,66.90
2018-02-18T04:13:51.251Z,66.80
2018-02-18T04:16:18.692Z,66.80
2018-02-18T04:18:47.915Z,66.70
2018-02-18T04:21:15.366Z,66.60
2018-02-18T04:23:42.881Z,66.70
2018-02-18T04:26:10.336Z,66.70
2018-02-18T04:28:37.795Z,66.60
2018-02-18T04:31:05.580Z,66.50
2018-02-18T04:33:33.345Z,66.70
2018-02-18T04:36:01.103Z,66.40
2018-02-18T04:38:28.564Z,66.40
2018-02-18T04:40:56.225Z,66.70
2018-02-18T04:43:23.675Z,66.50
2018-02-18T04:45:52.054Z,66.60
2018-02-18T04:48:19.524Z,66.60
2018-02-18T04:50:46.994Z,66.50
2018-02-18T04:53:15.038Z,66.40
2018-02-18T04:55:42.831Z,66.80
2018-02-18T05:01:35.860Z,65.70
2018-02-18T05:04:03.323Z,65.60
2018-02-18T05:06:30.984Z,66.00
2018-02-18T05:08:58.784Z,65.80
2018-02-18T05:11:27.767Z,66.00
2018-02-18T05:13:55.208Z,66.60
2018-02-18T05:16:22.842Z,66.00
2018-02-18T05:18:50.431Z,66.10
2018-02-18T05:21:17.873Z,66.00
2018-02-18T05:23:45.352Z,66.10
2018-02-18T05:26:12.796Z,66.20
2018-02-18T05:28:40.456Z,66.20
2018-02-18T05:31:08.240Z,66.40
2018-02-18T05:33:37.832Z,66.20
2018-02-18T05:36:06.485Z,66.40
2018-02-18T05:38:33.925Z,66.40
2018-02-18T05:41:01.648Z,66.30
2018-02-18T05:43:29.093Z,66.20
2018-02-18T05:45:56.625Z,66.50
2018-02-18T05:48:24.416Z,66.50
2018-02-18T05:50:51.856Z,66.40
2018-02-18T05:53:19.541Z,66.50
2018-02-18T05:55:47.598Z,66.20
2018-02-18T05:58:15.081Z,66.20
2018-02-18T06:00:42.528Z,66.20
2018-02-18T06:03:09.975Z,66.20
2018-02-18T06:05:38.213Z,66.30
2018-02-18T06:08:05.875Z,66.30
2018-02-18T06:10:33.416Z,66.70
2018-02-18T06:13:00.853Z,66.00
2018-02-18T06:15:29.260Z,66.00
2018-02-18T06:17:56.754Z,66.00
2018-02-18T06:20:24.200Z,65.90
2018-02-18T06:22:51.668Z,66.00
2018-02-18T06:25:19.629Z,65.90
2018-02-18T06:27:47.164Z,65.80
2018-02-18T06:30:14.610Z,65.70
2018-02-18T06:32:43.305Z,65.50
2018-02-18T06:35:11.270Z,65.50
2018-02-18T06:37:38.730Z,65.70
2018-02-18T06:40:06.609Z,65.60
2018-02-18T06:42:34.052Z,65.60
2018-02-18T06:45:01.712Z,65.80
2018-02-18T06:47:29.501Z,66.00
2018-02-18T06:49:56.986Z,66.00
2018-02-18T06:52:24.438Z,65.80
2018-02-18T06:54:52.402Z,66.00
2018-02-18T06:57:19.864Z,66.00
2018-02-18T06:59:47.333Z,66.10
2018-02-18T07:02:15.537Z,66.00
2018-02-18T07:04:43.007Z,65.90
2018-02-18T07:07:10.628Z,66.20
2018-02-18T07:09:39.108Z,66.20
2018-02-18T07:12:07.326Z,66.30
2018-02-18T07:14:35.142Z,66.40
2018-02-18T07:17:03.348Z,67.20
2018-02-18T07:19:30.833Z,66.40
2018-02-18T07:21:58.310Z,66.50
2018-02-18T07:24:25.752Z,66.70
2018-02-18T07:26:53.227Z,67.40
2018-02-18T07:29:20.822Z,66.60
2018-02-18T07:31:48.543Z,66.60
2018-02-18T07:34:16.503Z,66.50
2018-02-18T07:36:44.300Z,66.70
2018-02-18T07:39:12.852Z,67.60
2018-02-18T07:41:40.330Z,67.50
2018-02-18T07:44:07.844Z,67.70
2018-02-18T07:46:35.804Z,67.90
2018-02-18T07:49:03.253Z,67.80
2018-02-18T07:51:30.690Z,67.90
2018-02-18T07:53:59.129Z,68.70
2018-02-18T07:56:27.000Z,69.30
2018-02-18T07:58:54.471Z,69.10
2018-02-18T08:01:21.920Z,69.20
2018-02-18T08:03:49.782Z,68.90
2018-02-18T08:06:17.359Z,69.40
2018-02-18T08:08:45.149Z,69.60
2018-02-18T08:11:13.347Z,70.40
2018-02-18T08:13:40.837Z,70.30
2018-02-18T08:16:08.283Z,70.80
2018-02-18T08:18:35.946Z,71.20
2018-02-18T08:21:03.477Z,71.20
2018-02-18T08:23:30.951Z,71.50
2018-02-18T08:25:58.563Z,71.60
2018-02-18T08:28:26.045Z,71.70
2018-02-18T08:30:53.608Z,71.90
2018-02-18T08:33:21.612Z,71.80
2018-02-18T08:35:49.337Z,71.80
2018-02-18T08:38:17.548Z,72.00
2018-02-18T08:40:45.254Z,72.00
2018-02-18T08:43:12.750Z,72.10
2018-02-18T08:45:41.318Z,72.50
2018-02-18T08:48:08.766Z,72.50
2018-02-18T08:50:36.694Z,72.20
2018-02-18T08:53:05.401Z,71.90
2018-02-18T08:55:33.342Z,71.90
2018-02-18T08:58:01.565Z,71.80
2018-02-18T09:00:29.032Z,71.80
2018-02-18T09:02:56.501Z,71.40
2018-02-18T09:05:24.138Z,70.60
2018-02-18T09:07:51.844Z,70.50
2018-02-18T09:10:19.298Z,70.20
2018-02-18T09:12:46.736Z,70.50
2018-02-18T09:15:14.254Z,69.60
2018-02-18T09:17:41.764Z,69.50
2018-02-18T09:20:09.225Z,69.70
2018-02-18T09:22:36.688Z,69.90
2018-02-18T09:25:04.153Z,69.70
2018-02-18T09:27:31.603Z,68.90
2018-02-18T09:29:59.104Z,68.70
2018-02-18T09:32:26.955Z,68.30
2018-02-18T09:34:54.668Z,67.90
2018-02-18T09:37:22.366Z,67.00
2018-02-18T09:39:50.821Z,66.70
2018-02-18T09:42:18.689Z,66.70
2018-02-18T09:44:46.401Z,66.90
2018-02-18T09:47:13.880Z,67.10
2018-02-18T09:49:41.397Z,67.40
2018-02-18T09:52:09.603Z,66.00
2018-02-18T09:54:37.605Z,65.80
2018-02-18T09:57:05.664Z,65.10
2018-02-18T09:59:33.134Z,65.40
2018-02-18T10:02:00.574Z,65.20
2018-02-18T10:04:28.058Z,63.60
2018-02-18T10:06:55.570Z,64.70
2018-02-18T10:09:23.257Z,64.10
2018-02-18T10:11:50.709Z,64.00
2018-02-18T10:14:19.149Z,61.90
2018-02-18T10:16:46.620Z,62.00
2018-02-18T10:19:14.186Z,61.20
2018-02-18T10:21:41.633Z,60.70
2018-02-18T10:24:09.121Z,60.80
2018-02-18T10:26:36.581Z,61.90
2018-02-18T10:29:04.414Z,62.10
2018-02-18T10:31:32.263Z,59.20
2018-02-18T10:34:00.049Z,59.50
2018-02-18T10:36:28.665Z,59.20
2018-02-18T10:38:56.761Z,57.90
2018-02-18T10:41:25.008Z,58.40
2018-02-18T10:43:52.534Z,58.40
2018-02-18T10:46:20.066Z,57.70
2018-02-18T10:48:48.278Z,57.00
2018-02-18T10:51:15.768Z,57.00
2018-02-18T10:53:43.210Z,57.40
2018-02-18T10:56:11.485Z,57.00
2018-02-18T10:58:39.886Z,54.20
2018-02-18T11:01:08.397Z,54.90
2018-02-18T11:03:36.280Z,54.90
2018-02-18T11:06:04.154Z,54.20
2018-02-18T11:08:31.594Z,54.20
2018-02-18T11:10:59.612Z,54.30
2018-02-18T11:13:27.445Z,53.70
2018-02-18T11:15:54.941Z,53.70
2018-02-18T11:18:22.392Z,53.20
2018-02-18T11:20:50.253Z,54.40
2018-02-18T11:23:17.735Z,52.70
2018-02-18T11:25:45.498Z,52.70
2018-02-18T11:28:13.708Z,53.30
2018-02-18T11:30:41.155Z,53.50
2018-02-18T11:33:08.994Z,54.50
2018-02-18T11:35:37.644Z,52.50
2018-02-18T11:38:05.104Z,52.50
2018-02-18T11:40:33.712Z,51.50
2018-02-18T11:43:01.172Z,50.80
2018-02-18T11:45:29.462Z,51.00
2018-02-18T11:47:58.093Z,51.50
2018-02-18T11:50:25.549Z,51.50
2018-02-18T11:52:52.988Z,49.90
2018-02-18T11:55:21.091Z,51.30
2018-02-18T11:57:48.581Z,49.20
2018-02-18T12:00:16.806Z,49.30
2018-02-18T12:02:44.256Z,49.20
2018-02-18T12:05:11.730Z,50.30
2018-02-18T12:07:39.360Z,49.80
2018-02-18T12:10:07.205Z,48.10
2018-02-18T12:12:35.412Z,48.10
2018-02-18T12:15:02.968Z,48.10
2018-02-18T12:17:30.853Z,46.20
2018-02-18T12:19:58.336Z,44.80
2018-02-18T12:22:26.721Z,47.00
2018-02-18T12:24:54.134Z,46.70
2018-02-18T12:27:21.778Z,45.20
2018-02-18T12:29:49.227Z,45.30
2018-02-18T12:32:16.931Z,43.90
2018-02-18T12:34:44.789Z,41.70
2018-02-18T12:37:12.248Z,42.40
2018-02-18T12:39:39.844Z,43.60
2018-02-18T12:42:08.085Z,43.50
2018-02-18T12:44:35.633Z,43.50
2018-02-18T12:47:04.121Z,43.90
2018-02-18T12:49:31.601Z,43.80
2018-02-18T12:51:59.037Z,43.90
2018-02-18T12:54:27.897Z,45.10
2018-02-18T12:56:55.558Z,45.10
2018-02-18T12:59:23.318Z,44.40
2018-02-18T13:01:50.781Z,41.20
2018-02-18T13:04:18.258Z,41.50
2018-02-18T13:06:46.476Z,38.80
2018-02-18T13:09:15.042Z,39.00
2018-02-18T13:11:42.492Z,38.90
2018-02-18T13:14:09.967Z,39.50
2018-02-18T13:16:38.187Z,39.50
2018-02-18T13:19:05.676Z,39.50
2018-02-18T13:21:33.156Z,40.60
2018-02-18T13:24:01.505Z,42.60
2018-02-18T13:26:29.077Z,42.00
2018-02-18T13:28:56.560Z,38.60
2018-02-18T13:31:24.789Z,40.30
2018-02-18T13:33:52.585Z,40.10
2018-02-18T13:36:21.204Z,40.10
2018-02-18T13:38:49.448Z,40.00
2018-02-18T13:41:17.681Z,39.60
2018-02-18T13:43:45.215Z,39.50
2018-02-18T13:46:13.421Z,41.40
2018-02-18T13:48:41.204Z,41.30
2018-02-18T13:51:08.695Z,41.70
2018-02-18T13:53:36.159Z,42.10
2018-02-18T13:56:04.133Z,39.90
2018-02-18T13:58:31.605Z,39.50
2018-02-18T14:00:59.053Z,39.20
2018-02-18T14:03:26.616Z,38.90
2018-02-18T14:05:54.076Z,39.30
2018-02-18T14:08:21.822Z,40.10
2018-02-18T14:10:49.680Z,41.00
2018-02-18T14:13:17.138Z,40.60
2018-02-18T14:15:45.234Z,39.40
2018-02-18T14:18:12.685Z,39.90
2018-02-18T14:20:40.169Z,41.00
2018-02-18T14:23:08.403Z,40.60
2018-02-18T14:25:36.050Z,40.60
2018-02-18T14:28:03.512Z,40.70
2018-02-18T14:30:31.000Z,41.20
2018-02-18T14:32:59.787Z,40.60
2018-02-18T14:35:27.690Z,40.50
2018-02-18T14:37:55.461Z,41.50
2018-02-18T14:40:23.940Z,41.20
2018-02-18T14:43:03.949Z,41.70
2018-02-18T14:45:43.416Z,41.70
2018-02-18T14:48:22.759Z,42.80
2018-02-18T14:51:02.377Z,43.30
2018-02-18T14:53:41.724Z,43.00
2018-02-18T14:56:31.146Z,43.10
2018-02-18T14:58:58.608Z,42.60
2018-02-18T15:01:26.099Z,43.70
2018-02-18T15:03:53.551Z,44.20
2018-02-18T15:06:21.033Z,44.60
2018-02-18T15:08:48.559Z,45.30
2018-02-18T15:11:16.014Z,44.60
2018-02-18T15:13:43.504Z,44.20
2018-02-18T15:16:10.974Z,43.80
2018-02-18T15:18:40.127Z,44.10
2018-02-18T15:21:07.643Z,44.10
2018-02-18T15:23:35.861Z,43.80
2018-02-18T15:26:03.325Z,43.80
2018-02-18T15:28:32.782Z,43.00
2018-02-18T15:31:00.382Z,43.30
2018-02-18T15:33:28.180Z,44.00
2018-02-18T15:35:55.985Z,45.40
2018-02-18T15:38:23.478Z,45.30
2018-02-18T15:40:51.172Z,45.20
2018-02-18T15:43:19.379Z,45.90
2018-02-18T15:45:46.892Z,45.90
2018-02-18T15:48:15.133Z,46.80
2018-02-18T15:50:42.654Z,46.70
2018-02-18T15:53:10.114Z,47.00
2018-02-18T15:55:38.246Z,46.90
2018-02-18T15:58:05.741Z,47.50
2018-02-18T16:00:33.214Z,47.50
2018-02-18T16:03:00.677Z,47.50
2018-02-18T16:05:28.547Z,47.50
2018-02-18T16:07:55.986Z,48.00
2018-02-18T16:10:23.495Z,48.20
2018-02-18T16:12:50.968Z,48.40
2018-02-18T16:15:19.185Z,48.90
2018-02-18T16:17:47.284Z,48.70
2018-02-18T16:20:14.818Z,48.80
2018-02-18T16:22:42.270Z,48.50
2018-02-18T16:25:09.755Z,48.60
2018-02-18T16:27:38.446Z,49.30
2018-02-18T16:30:05.897Z,49.70
2018-02-18T16:32:33.364Z,49.70
2018-02-18T16:35:01.179Z,49.80
2018-02-18T16:37:28.613Z,49.80
2018-02-18T16:39:57.245Z,50.70
2018-02-18T16:42:25.044Z,50.60
2018-02-18T16:44:52.489Z,50.70
2018-02-18T16:47:20.059Z,50.50
2018-02-18T16:49:47.509Z,50.90
2018-02-18T16:52:15.000Z,51.50
2018-02-18T16:54:43.702Z,51.80
2018-02-18T16:57:11.222Z,51.70
2018-02-18T16:59:39.438Z,51.70
2018-02-18T17:02:06.943Z,51.70
2018-02-18T17:04:34.395Z,51.70
2018-02-18T17:07:02.256Z,51.80
2018-02-18T17:09:30.900Z,52.00
2018-02-18T17:11:58.412Z,52.20
2018-02-18T17:14:25.855Z,52.10
2018-02-18T17:16:53.375Z,52.00
2018-02-18T17:19:20.812Z,52.20
2018-02-18T17:21:48.286Z,52.50
2018-02-18T17:24:16.205Z,52.50
2018-02-18T17:26:43.677Z,52.60
2018-02-18T17:29:12.352Z,52.90
2018-02-18T17:31:40.831Z,52.90
2018-02-18T17:34:09.550Z,53.60
2018-02-18T17:36:37.449Z,53.20
2018-02-18T17:39:05.834Z,53.30
2018-02-18T17:41:33.335Z,53.60
2018-02-18T17:44:01.569Z,53.90
2018-02-18T17:46:29.048Z,53.80
2018-02-18T17:48:57.290Z,54.40
2018-02-18T17:51:24.775Z,54.40
2018-02-18T17:53:52.263Z,54.10
2018-02-18T17:56:19.928Z,54.20
2018-02-18T17:58:47.376Z,54.20
2018-02-18T18:01:15.025Z,54.30
2018-02-18T18:03:43.244Z,54.70
2018-02-18T18:06:11.057Z,54.90
2018-02-18T18:08:39.401Z,55.30
2018-02-18T18:11:07.210Z,55.10
2018-02-18T18:13:35.426Z,55.50
2018-02-18T18:16:03.581Z,55.40
2018-02-18T18:18:31.045Z,55.60
2018-02-18T18:20:58.769Z,55.90
2018-02-18T18:23:26.301Z,56.10
2018-02-18T18:25:53.745Z,56.10
2018-02-18T18:28:21.694Z,56.40
2018-02-18T18:30:49.152Z,56.30
2018-02-18T18:33:17.447Z,56.40
2018-02-18T18:35:45.941Z,56.50
2018-02-18T18:38:13.994Z,56.60
2018-02-18T18:40:41.750Z,56.80
2018-02-18T18:43:09.753Z,56.90
2018-02-18T18:45:37.731Z,56.90
2018-02-18T18:48:05.725Z,56.90
2018-02-18T18:50:33.199Z,57.00
2018-02-18T18:53:00.669Z,57.10
2018-02-18T18:55:28.518Z,57.20
2018-02-18T18:57:55.971Z,57.30
2018-02-18T19:00:23.489Z,57.40
2018-02-18T19:02:50.947Z,57.40
2018-02-18T19:05:18.438Z,57.40
2018-02-18T19:07:50.301Z,57.80
2018-02-18T19:10:18.937Z,58.00
2018-02-18T19:12:47.189Z,57.80
2018-02-18T19:15:14.985Z,57.80
2018-02-18T19:17:42.697Z,58.00
2018-02-18T19:20:10.610Z,58.40
2018-02-18T19:22:38.082Z,58.60
2018-02-18T19:25:05.571Z,58.80
2018-02-18T19:27:33.037Z,58.70
2018-02-18T19:30:00.515Z,59.00
2018-02-18T19:32:28.911Z,59.20
2018-02-18T19:34:56.588Z,59.10
2018-02-18T19:37:24.511Z,59.30
2018-02-18T19:39:52.274Z,59.40
2018-02-18T19:42:19.732Z,59.50
2018-02-18T19:44:47.176Z,59.60
2018-02-18T19:47:14.800Z,59.80
2018-02-18T19:49:42.242Z,59.80
2018-02-18T19:52:10.337Z,59.90
2018-02-18T19:54:38.422Z,59.90
2018-02-18T19:57:05.893Z,59.90
2018-02-18T19:59:33.361Z,59.90
2018-02-18T20:02:00.997Z,60.00
2018-02-18T20:04:30.250Z,60.20
2018-02-18T20:06:57.766Z,60.00
2018-02-18T20:09:26.022Z,59.80
2018-02-18T20:11:54.428Z,59.80
2018-02-18T20:14:22.192Z,59.90
2018-02-18T20:16:49.813Z,60.00
2018-02-18T20:19:17.424Z,60.10
2018-02-18T20:21:44.912Z,60.40
2018-02-18T20:24:12.984Z,60.50
2018-02-18T20:26:40.478Z,60.60
2018-02-18T20:29:08.264Z,60.80
2018-02-18T20:31:36.132Z,72.60
2018-02-18T20:34:04.198Z,62.00
2018-02-18T20:36:32.309Z,60.90
2018-02-18T20:39:00.388Z,60.50
2018-02-18T20:41:28.701Z,60.50
2018-02-18T20:43:56.206Z,60.50
2018-02-18T20:46:23.675Z,60.60
2018-02-18T20:48:51.600Z,60.60
2018-02-18T20:51:19.108Z,60.80
2018-02-18T20:53:47.741Z,61.10
2018-02-18T20:56:15.665Z,61.10
2018-02-18T20:58:43.932Z,61.50
2018-02-18T21:01:11.442Z,61.20
2018-02-18T21:03:38.902Z,61.20
2018-02-18T21:06:06.558Z,61.40
2018-02-18T21:08:33.998Z,61.50
2018-02-18T21:11:01.725Z,61.70
2018-02-18T21:13:29.483Z,61.70
2018-02-18T21:15:56.930Z,61.80
2018-02-18T21:18:24.464Z,61.80
2018-02-18T21:20:51.919Z,62.10
2018-02-18T21:23:19.416Z,62.00
2018-02-18T21:25:46.895Z,62.00
2018-02-18T21:28:15.129Z,61.50
2018-02-18T21:30:42.592Z,61.50
2018-02-18T21:33:10.662Z,61.50
2018-02-18T21:35:38.606Z,61.70
2018-02-18T21:38:06.408Z,61.60
2018-02-18T21:40:34.244Z,61.70
2018-02-18T21:43:01.795Z,61.70
2018-02-18T21:45:29.309Z,61.70
2018-02-18T21:47:57.892Z,62.50
2018-02-18T21:50:26.114Z,62.30
2018-02-18T21:52:53.811Z,62.30
2018-02-18T21:55:21.678Z,62.00
2018-02-18T21:57:49.641Z,61.70
2018-02-18T22:00:17.205Z,61.40
2018-02-18T22:02:45.166Z,61.20
2018-02-18T22:05:12.625Z,62.50
2018-02-18T22:07:40.181Z,61.00
2018-02-18T22:10:07.633Z,60.90
2018-02-18T22:12:35.158Z,60.90
2018-02-18T22:15:02.722Z,60.90
2018-02-18T22:17:30.522Z,61.10
2018-02-18T22:19:58.296Z,61.10
2018-02-18T22:22:26.564Z,61.40
2018-02-18T22:24:54.009Z,61.30
2018-02-18T22:27:21.512Z,61.50
2018-02-18T22:29:49.728Z,61.70
2018-02-18T22:32:17.201Z,61.70
2018-02-18T22:34:45.180Z,62.00
2018-02-18T22:37:12.936Z,62.10
2018-02-18T22:39:43.560Z,62.20
2018-02-18T22:42:12.574Z,62.70
2018-02-18T22:44:40.080Z,62.60
2018-02-18T22:47:07.742Z,62.80
2018-02-18T22:49:35.350Z,63.00
2018-02-18T22:52:04.136Z,63.70
2018-02-18T22:54:33.001Z,63.20
2018-02-18T22:57:00.465Z,63.10
2018-02-18T22:59:28.094Z,63.20
2018-02-18T23:01:55.544Z,63.20
2018-02-18T23:04:23.143Z,63.40
2018-02-18T23:06:52.949Z,63.30
2018-02-18T23:09:20.425Z,63.30
2018-02-18T23:11:47.909Z,63.40
2018-02-18T23:14:15.736Z,63.30
2018-02-18T23:23:31.803Z,64.40
2018-02-18T23:26:00.116Z,64.50
2018-02-18T23:28:29.414Z,64.40
2018-02-18T23:30:56.874Z,64.50
2018-02-18T23:33:24.792Z,64.50
2018-02-18T23:35:53.652Z,65.40
2018-02-18T23:38:21.277Z,64.60
2018-02-18T23:40:48.972Z,64.80
2018-02-18T23:43:16.453Z,64.80
2018-02-18T23:45:43.965Z,64.70
2018-02-18T23:48:11.671Z,64.40
2018-02-18T23:50:39.150Z,64.60
2018-02-18T23:53:07.424Z,64.70
2018-02-18T23:55:35.933Z,64.70
2018-02-18T23:58:03.751Z,64.70
